Strona główna
METAR-TAF:

METAR-TAF

Lotnisko :

Port lotniczy Saint-Pierre

Saint-Pierre, Saint-Pierre i Miquelon

Szerokość geograficzna: 46-46N, Długość geograficzna: 056-10W, wysokość: 3 m

Aktualna obserwacja pogody

Raport powstał 1 godzina i 8 minut temu, godzina 16:00 UTC
Wiatr 13 kt od zachodnio-północny zachód, zmienny między zachód i północny zachód
Temperatura 0°C
Wilgotność 55%
Ciśnienie 1005 hPa
Widzialność 10 km lub więcej
Przerywane chmury na wysokości 2800 ft

METAR: LFVP 221600Z 29013KT 260V320 9999 BKN028 M00/M08 Q1005 NOSIG

czas: 14:08 (17:08 UTC)

Prognoza

Raport powstał 6 godziny i 8 minut temu, godzina 11:00 UTC
Prognoza ważna od 22 godzina 12 UTC do 22 godzina 21 UTC
Wiatr 15 kt od zachodnio-północny zachód w porywach dochodzący do 25 kt
Widzialność 10 km lub więcej
Przerywane chmury na wysokości 2500 ft
Stopniowe zmiany
od 22 godzina 15 UTC do 22 godzina 16 UTC
Mało chmury na wysokości 2500 ft

TAF: LFVP 221100Z 2212/2221 29015G25KT 9999 BKN025 BECMG 2215/2216 FEW025

Obserwacja i prognoza pogody dla ponad 4000 lotnisk (raport METAR i TAF).

Dostępne stacje oznaczono żółtymi i czerwonymi punktami na mapie.

Najedź kursorem aby zobaczyć nazwę stacji.

Kliknij aby zobaczyć obserwacje i prognozy pogody.

Aby zmienić mapę: kliknij na zielony przycisk z czarnym krzyżykiem, aby powiększyć; na zielony przycisk z myślnikiem, aby pomniejszyć; na zielone strzałki, aby przejść do map sąsiednich.


METAR-TAF: